Time;durP1;ratioP1;P1;durP2;ratioP2;P2;SDS_P1;SDS_P2;PMS_P1;PMS_P2;Temp;Humidity;BMP_temperature;BMP_pressure;BME280_temperature;BME280_humidity;BME280_pressure;Samples;Min_cycle;Max_cycle;Signal;HPM_P1;HPM_P2
2021/08/21 00:00:20;;;;;;;29.95;25.23;;;16.20;99.90;;;;;;5084807;28;20146;-79
2021/08/21 00:02:46;;;;;;;30.35;26.38;;;16.20;99.90;;;;;;5086263;28;20115;-79
2021/08/21 00:05:11;;;;;;;33.90;24.88;;;16.20;99.90;;;;;;5091546;28;20082;-77
2021/08/21 00:07:37;;;;;;;31.10;25.10;;;16.20;99.90;;;;;;5094611;28;20060;-79
2021/08/21 00:10:05;;;;;;;31.40;24.23;;;16.20;99.90;;;;;;5078562;28;20032;-80
2021/08/21 00:12:31;;;;;;;28.60;23.90;;;16.10;99.90;;;;;;5096128;28;20032;-79
2021/08/21 00:14:56;;;;;;;26.42;22.67;;;16.10;99.90;;;;;;5104669;28;20028;-80
2021/08/21 00:17:22;;;;;;;30.25;23.25;;;16.10;99.90;;;;;;5085849;28;20029;-79
2021/08/21 00:19:48;;;;;;;28.15;21.60;;;16.10;99.90;;;;;;5080047;28;20041;-79
2021/08/21 00:22:13;;;;;;;30.38;22.83;;;16.10;99.90;;;;;;5087640;28;20032;-78
2021/08/21 00:24:43;;;;;;;30.73;22.80;;;16.20;99.90;;;;;;5079533;28;20100;-79
2021/08/21 00:27:08;;;;;;;31.42;22.83;;;16.00;99.90;;;;;;5085948;28;20059;-78
2021/08/21 00:29:34;;;;;;;25.38;21.45;;;16.00;99.90;;;;;;5097428;28;20025;-80
2021/08/21 00:32:00;;;;;;;29.88;23.30;;;16.10;99.90;;;;;;5080005;28;20024;-79
2021/08/21 00:34:26;;;;;;;30.60;23.40;;;16.10;99.90;;;;;;5079465;28;20021;-79
2021/08/21 00:36:51;;;;;;;36.22;23.45;;;16.10;99.90;;;;;;5078609;28;20028;-79
2021/08/21 00:39:17;;;;;;;37.40;23.67;;;16.20;99.90;;;;;;5082635;28;20040;-79
2021/08/21 00:41:43;;;;;;;30.70;22.83;;;16.20;99.90;;;;;;5076230;28;20024;-78
2021/08/21 00:44:09;;;;;;;32.63;23.88;;;16.30;99.90;;;;;;5090127;28;20059;-77
2021/08/21 00:47:00;;;;;;;33.92;23.75;;;16.30;99.90;;;;;;5098104;28;20475;-79
2021/08/21 00:49:27;;;;;;;32.30;23.85;;;16.40;99.90;;;;;;5092762;28;20027;-78
2021/08/21 00:51:53;;;;;;;32.08;24.33;;;16.40;99.90;;;;;;5095004;28;20383;-78
2021/08/21 00:54:18;;;;;;;31.58;23.33;;;16.40;99.90;;;;;;5088614;28;20069;-78
2021/08/21 00:56:44;;;;;;;34.20;24.25;;;16.40;99.90;;;;;;5099482;28;20020;-79
2021/08/21 00:59:10;;;;;;;31.52;22.30;;;16.50;99.90;;;;;;5096966;28;20025;-79
2021/08/21 01:01:35;;;;;;;31.08;20.85;;;16.50;99.90;;;;;;5079695;28;20024;-78
2021/08/21 01:04:02;;;;;;;32.10;21.10;;;16.50;99.90;;;;;;5078418;28;20032;-79
2021/08/21 01:06:27;;;;;;;25.98;19.88;;;16.50;99.90;;;;;;5090768;28;20099;-79
2021/08/21 01:08:53;;;;;;;23.90;20.15;;;16.50;99.90;;;;;;5088181;28;20058;-77
2021/08/21 01:11:19;;;;;;;26.25;19.90;;;16.40;99.90;;;;;;5077530;28;20016;-78
2021/08/21 01:13:44;;;;;;;27.65;20.65;;;16.40;99.90;;;;;;5089964;28;20013;-79
2021/08/21 01:16:10;;;;;;;27.45;18.10;;;16.40;99.90;;;;;;5083124;28;20476;-77
2021/08/21 01:18:38;;;;;;;23.98;18.48;;;16.40;99.90;;;;;;5081226;28;20044;-78
2021/08/21 01:21:04;;;;;;;26.70;19.35;;;16.30;99.90;;;;;;5096450;28;20016;-79
2021/08/21 01:23:29;;;;;;;24.25;19.15;;;16.20;99.90;;;;;;5079915;28;20031;-79
2021/08/21 01:25:55;;;;;;;23.08;19.08;;;16.20;99.90;;;;;;5081170;28;20032;-79
2021/08/21 01:28:20;;;;;;;22.88;18.67;;;16.10;99.90;;;;;;5079202;28;20028;-79
2021/08/21 01:30:46;;;;;;;21.45;17.63;;;16.20;99.90;;;;;;5079102;28;20346;-79
2021/08/21 01:33:11;;;;;;;26.80;20.52;;;16.10;99.90;;;;;;5079005;28;20021;-79
2021/08/21 01:35:37;;;;;;;30.30;19.17;;;16.10;99.90;;;;;;5078508;28;20020;-79
2021/08/21 01:38:03;;;;;;;26.27;19.98;;;16.10;99.90;;;;;;5078333;28;20060;-78
2021/08/21 01:40:28;;;;;;;29.67;20.98;;;16.10;99.90;;;;;;5092512;28;20077;-79
2021/08/21 01:42:54;;;;;;;29.17;21.15;;;16.10;99.90;;;;;;5095092;28;20388;-79
2021/08/21 01:45:19;;;;;;;33.67;22.15;;;16.10;99.90;;;;;;5081229;28;20024;-78
2021/08/21 01:47:46;;;;;;;34.28;23.67;;;16.10;99.90;;;;;;5081888;28;20044;-78
2021/08/21 01:50:19;;;;;;;29.20;20.92;;;16.10;99.90;;;;;;5096682;28;20047;-78
2021/08/21 01:52:49;;;;;;;29.35;21.63;;;16.10;99.90;;;;;;5091925;28;20031;-79
2021/08/21 01:55:15;;;;;;;32.38;22.20;;;16.10;99.90;;;;;;5102990;28;20024;-78
2021/08/21 01:57:45;;;;;;;30.00;21.77;;;16.10;99.90;;;;;;5095139;28;20048;-78
2021/08/21 02:00:11;;;;;;;29.20;21.02;;;16.10;99.90;;;;;;5083488;28;20016;-79
2021/08/21 02:02:38;;;;;;;28.10;21.27;;;16.10;99.90;;;;;;5082840;28;20108;-79
2021/08/21 02:05:05;;;;;;;29.92;22.05;;;16.10;99.90;;;;;;5075543;28;20020;-77
2021/08/21 02:07:31;;;;;;;33.60;22.52;;;16.10;99.90;;;;;;5082083;28;20350;-80
2021/08/21 02:09:57;;;;;;;31.67;23.33;;;16.00;99.90;;;;;;5076757;28;20119;-80
2021/08/21 02:12:23;;;;;;;31.38;22.13;;;16.00;99.90;;;;;;5090576;28;20032;-79
2021/08/21 02:14:48;;;;;;;36.28;23.20;;;16.00;99.90;;;;;;5079774;28;20028;-79
2021/08/21 02:17:14;;;;;;;35.67;22.30;;;16.10;99.90;;;;;;5092473;28;20027;-79
2021/08/21 02:19:40;;;;;;;34.05;23.77;;;16.00;99.90;;;;;;5082631;28;20044;-79
2021/08/21 02:22:06;;;;;;;32.83;23.02;;;16.00;99.90;;;;;;5081142;28;20028;-79
2021/08/21 02:24:34;;;;;;;34.15;22.23;;;16.00;99.90;;;;;;5098510;28;20032;-79
2021/08/21 02:27:01;;;;;;;34.85;24.00;;;16.00;99.90;;;;;;5080206;28;20052;-80
2021/08/21 02:29:28;;;;;;;36.83;23.33;;;16.00;99.90;;;;;;5091552;28;20491;-78
2021/08/21 02:31:55;;;;;;;37.85;24.88;;;16.00;99.90;;;;;;5099940;28;20036;-78
2021/08/21 02:34:22;;;;;;;41.20;26.17;;;16.00;99.90;;;;;;5100375;28;20054;-77
2021/08/21 02:36:49;;;;;;;48.67;28.05;;;16.00;99.90;;;;;;5100793;28;20054;-79
2021/08/21 02:39:14;;;;;;;45.95;28.23;;;16.80;99.90;;;;;;5098574;28;20067;-78
2021/08/21 02:41:40;;;;;;;49.05;28.17;;;16.00;99.90;;;;;;5083924;28;20028;-78
2021/08/21 02:44:06;;;;;;;48.42;29.25;;;16.00;99.90;;;;;;5099685;28;20024;-79
2021/08/21 02:46:32;;;;;;;45.50;28.10;;;16.00;99.90;;;;;;5091490;28;20043;-79
2021/08/21 02:48:59;;;;;;;55.50;28.60;;;16.00;99.90;;;;;;5098082;28;20452;-79
2021/08/21 02:51:24;;;;;;;50.85;29.42;;;16.00;99.90;;;;;;5082299;28;20028;-78
2021/08/21 02:53:50;;;;;;;55.97;30.60;;;16.10;99.90;;;;;;5089742;28;20025;-78
2021/08/21 02:56:22;;;;;;;55.78;31.33;;;16.10;99.90;;;;;;5077278;28;20055;-79
2021/08/21 02:58:47;;;;;;;54.58;29.02;;;16.10;99.90;;;;;;5074991;28;20519;-79
2021/08/21 03:01:13;;;;;;;51.70;29.13;;;16.20;99.90;;;;;;5073983;28;20055;-79
2021/08/21 03:03:38;;;;;;;46.90;28.88;;;16.20;99.90;;;;;;5074952;28;20414;-80
2021/08/21 03:06:04;;;;;;;46.42;27.27;;;16.20;99.90;;;;;;5074653;28;20054;-79
2021/08/21 03:08:29;;;;;;;44.40;28.05;;;16.20;99.90;;;;;;5087275;28;20104;-79
2021/08/21 03:10:58;;;;;;;44.70;26.23;;;16.30;99.90;;;;;;5074944;28;20070;-80
2021/08/21 03:13:24;;;;;;;41.90;27.05;;;16.30;99.90;;;;;;5073431;28;20028;-79
2021/08/21 03:15:49;;;;;;;44.50;27.10;;;16.40;99.90;;;;;;5073124;28;20025;-79
2021/08/21 03:18:15;;;;;;;43.75;27.52;;;16.30;99.90;;;;;;5073395;28;20040;-77
2021/08/21 03:20:40;;;;;;;40.10;25.48;;;16.30;99.90;;;;;;5077754;28;20101;-77
2021/08/21 03:23:06;;;;;;;42.63;27.15;;;16.30;99.90;;;;;;5075002;28;20075;-79
2021/08/21 03:25:32;;;;;;;48.97;28.10;;;16.40;99.90;;;;;;5073893;28;20017;-79
2021/08/21 03:27:57;;;;;;;43.65;25.85;;;16.40;99.90;;;;;;5089134;28;20020;-80
2021/08/21 03:30:23;;;;;;;42.10;24.33;;;16.40;99.90;;;;;;5076349;28;20036;-79
2021/08/21 03:32:48;;;;;;;41.90;24.63;;;16.40;99.90;;;;;;5073444;28;20503;-80
2021/08/21 03:35:17;;;;;;;41.70;24.90;;;16.40;99.90;;;;;;5074563;28;20048;-80
2021/08/21 03:37:42;;;;;;;39.58;24.50;;;16.40;99.90;;;;;;5084533;28;20136;-78
2021/08/21 03:40:10;;;;;;;35.85;24.27;;;16.30;99.90;;;;;;5072988;28;20044;-78
2021/08/21 03:42:35;;;;;;;33.00;22.33;;;16.40;99.90;;;;;;5072466;28;20017;-78
2021/08/21 03:45:01;;;;;;;34.83;21.73;;;16.30;99.90;;;;;;5072627;28;20031;-79
2021/08/21 03:47:27;;;;;;;35.35;21.75;;;16.30;99.90;;;;;;5072704;28;20032;-80
2021/08/21 03:49:52;;;;;;;35.83;23.45;;;16.30;99.90;;;;;;5072762;28;20052;-80
2021/08/21 03:52:18;;;;;;;38.72;23.60;;;16.30;99.90;;;;;;5071824;28;20043;-78
2021/08/21 03:54:43;;;;;;;35.85;22.95;;;16.30;99.90;;;;;;5073262;28;20108;-78
2021/08/21 03:57:09;;;;;;;40.67;24.80;;;16.30;99.90;;;;;;5073909;28;20071;-77
2021/08/21 03:59:34;;;;;;;41.70;24.90;;;16.30;99.90;;;;;;5076426;28;20028;-79
2021/08/21 04:02:00;;;;;;;40.28;26.02;;;16.20;99.90;;;;;;5072689;28;20025;-78
2021/08/21 04:04:25;;;;;;;41.78;24.33;;;16.30;99.90;;;;;;5072693;28;20035;-78
2021/08/21 04:06:51;;;;;;;42.65;25.35;;;16.30;99.90;;;;;;5073961;28;20027;-77
2021/08/21 04:09:16;;;;;;;51.88;27.95;;;16.30;99.90;;;;;;5073774;28;20024;-78
2021/08/21 04:11:42;;;;;;;45.70;26.25;;;16.30;99.90;;;;;;5074943;28;20020;-77
2021/08/21 04:14:07;;;;;;;45.45;26.92;;;16.30;99.90;;;;;;5075136;28;20017;-78
2021/08/21 04:16:33;;;;;;;51.92;28.83;;;16.30;99.90;;;;;;5075912;28;20024;-77
2021/08/21 04:18:58;;;;;;;47.40;28.70;;;16.30;99.90;;;;;;5073840;28;20028;-78
2021/08/21 04:21:24;;;;;;;49.95;27.35;;;16.30;99.90;;;;;;5082151;28;20063;-79
2021/08/21 04:23:53;;;;;;;48.08;27.35;;;16.40;99.90;;;;;;5090809;28;20032;-78
2021/08/21 04:26:19;;;;;;;54.33;29.75;;;16.30;99.90;;;;;;5077374;28;20044;-77
2021/08/21 04:28:45;;;;;;;46.80;28.10;;;16.30;99.90;;;;;;5077181;28;20035;-77
2021/08/21 04:31:10;;;;;;;49.33;28.08;;;16.30;99.90;;;;;;5090762;28;20016;-78
2021/08/21 04:33:36;;;;;;;42.95;27.42;;;16.30;99.90;;;;;;5076543;28;20020;-80
2021/08/21 04:36:01;;;;;;;47.17;27.48;;;16.30;99.90;;;;;;5076107;28;20025;-78
2021/08/21 04:38:27;;;;;;;47.20;27.73;;;16.30;99.90;;;;;;5075724;28;20415;-80
2021/08/21 04:40:53;;;;;;;38.92;25.38;;;16.30;99.90;;;;;;5075289;28;20032;-79
2021/08/21 04:43:19;;;;;;;44.50;26.10;;;16.30;99.90;;;;;;5075328;28;20024;-80
2021/08/21 04:45:45;;;;;;;41.40;26.65;;;16.80;99.90;;;;;;5076494;28;20052;-78
2021/08/21 04:48:11;;;;;;;44.28;26.60;;;16.40;99.90;;;;;;5076685;28;20107;-80
2021/08/21 04:50:37;;;;;;;45.25;27.92;;;16.40;99.90;;;;;;5075832;28;20454;-78
2021/08/21 04:53:06;;;;;;;43.05;26.35;;;16.40;99.90;;;;;;5076622;28;20067;-78
2021/08/21 04:55:36;;;;;;;49.55;28.73;;;16.40;99.90;;;;;;5075128;28;20120;-79
2021/08/21 04:58:02;;;;;;;47.40;30.02;;;16.50;99.90;;;;;;5075633;28;20388;-78
2021/08/21 05:00:31;;;;;;;45.40;27.38;;;16.50;99.90;;;;;;5087264;28;20023;-79
2021/08/21 05:02:58;;;;;;;45.58;28.00;;;16.50;99.90;;;;;;5078311;28;20025;-79
2021/08/21 05:05:28;;;;;;;48.65;29.98;;;16.50;99.90;;;;;;5077164;28;20545;-79
2021/08/21 05:07:53;;;;;;;50.13;28.95;;;16.50;99.90;;;;;;5081113;28;20502;-78
2021/08/21 05:10:19;;;;;;;43.00;27.50;;;16.50;99.90;;;;;;5079250;28;20024;-79
2021/08/21 05:12:45;;;;;;;41.92;26.30;;;16.50;99.90;;;;;;5076854;28;20017;-78
2021/08/21 05:15:12;;;;;;;42.72;27.50;;;16.60;99.90;;;;;;5079553;28;20043;-78
2021/08/21 05:17:38;;;;;;;43.58;27.85;;;16.60;99.90;;;;;;5075951;28;20036;-78
2021/08/21 05:20:15;;;;;;;40.97;27.27;;;16.60;99.90;;;;;;5076518;28;20066;-78
2021/08/21 05:25:13;;;;;;;41.72;26.67;;;16.60;99.90;;;;;;5080516;28;20108;-77
2021/08/21 05:27:39;;;;;;;41.95;27.02;;;16.60;99.90;;;;;;5076555;28;20044;-78
2021/08/21 05:30:06;;;;;;;43.13;27.77;;;16.60;99.90;;;;;;5083361;28;20070;-78
2021/08/21 05:32:33;;;;;;;40.75;26.30;;;16.60;99.90;;;;;;5074936;28;20028;-77
2021/08/21 05:35:02;;;;;;;42.35;27.48;;;16.60;99.90;;;;;;5076416;28;20067;-78
2021/08/21 05:37:28;;;;;;;41.88;26.45;;;16.60;99.90;;;;;;5073922;28;20051;-77
2021/08/21 05:39:53;;;;;;;41.85;27.65;;;16.70;99.90;;;;;;5077305;28;20028;-76
2021/08/21 05:42:19;;;;;;;38.97;26.23;;;16.70;99.90;;;;;;5073847;28;20405;-78
2021/08/21 05:44:45;;;;;;;36.83;24.75;;;16.70;99.90;;;;;;5082138;28;20082;-78
2021/08/21 05:47:10;;;;;;;38.22;25.33;;;16.70;99.90;;;;;;5080575;28;20020;-77
2021/08/21 05:49:36;;;;;;;34.45;23.60;;;16.80;99.90;;;;;;5082891;28;20020;-77
2021/08/21 05:52:01;;;;;;;39.72;24.98;;;16.90;99.90;;;;;;5074463;28;20013;-80
2021/08/21 05:54:27;;;;;;;40.00;24.90;;;16.80;99.90;;;;;;5075302;28;20035;-80
2021/08/21 05:56:52;;;;;;;33.90;23.63;;;16.80;99.90;;;;;;5078486;28;20161;-78
2021/08/21 05:59:18;;;;;;;35.40;24.52;;;16.90;99.90;;;;;;5078677;28;20114;-78
2021/08/21 06:01:44;;;;;;;35.55;23.85;;;16.90;99.90;;;;;;5073428;28;20039;-78
2021/08/21 06:04:09;;;;;;;35.97;24.75;;;16.90;99.90;;;;;;5072818;28;20349;-78
2021/08/21 06:06:36;;;;;;;30.40;21.60;;;16.90;99.90;;;;;;5078509;28;20031;-77
2021/08/21 06:09:02;;;;;;;37.42;22.70;;;16.90;99.90;;;;;;5077877;28;20046;-77
2021/08/21 06:11:28;;;;;;;30.45;21.52;;;17.00;99.90;;;;;;5086237;28;20047;-77
2021/08/21 06:13:53;;;;;;;33.63;21.08;;;17.00;99.90;;;;;;5087561;28;20464;-78
2021/08/21 06:16:19;;;;;;;32.70;21.08;;;17.10;99.90;;;;;;5074963;28;20012;-80
2021/08/21 06:18:45;;;;;;;34.75;22.73;;;17.10;99.90;;;;;;5074973;28;20035;-77
2021/08/21 06:21:11;;;;;;;31.52;22.55;;;17.30;99.90;;;;;;5086892;28;20105;-78
2021/08/21 06:23:36;;;;;;;30.77;22.05;;;17.30;99.90;;;;;;5075925;28;20071;-79
2021/08/21 06:26:02;;;;;;;32.95;22.45;;;17.50;99.90;;;;;;5073921;28;20066;-79
2021/08/21 06:28:27;;;;;;;35.78;22.08;;;17.60;99.90;;;;;;5075470;28;20016;-79
2021/08/21 06:30:53;;;;;;;34.70;22.48;;;17.80;99.90;;;;;;5075145;28;20027;-78
2021/08/21 06:33:19;;;;;;;33.58;22.52;;;17.90;99.90;;;;;;5089882;28;20543;-79
2021/08/21 06:35:47;;;;;;;38.83;22.83;;;18.00;99.90;;;;;;5075199;28;20017;-78
2021/08/21 06:38:12;;;;;;;26.67;19.95;;;18.10;99.90;;;;;;5078354;28;20052;-79
2021/08/21 06:40:38;;;;;;;29.98;19.35;;;18.20;99.90;;;;;;5075098;28;20017;-80
2021/08/21 06:43:04;;;;;;;28.02;20.80;;;18.30;99.90;;;;;;5077521;28;20029;-79
2021/08/21 06:45:29;;;;;;;27.40;19.30;;;18.40;99.90;;;;;;5074649;28;20076;-77
2021/08/21 06:47:55;;;;;;;24.13;18.50;;;18.50;99.90;;;;;;5084539;28;20016;-78
2021/08/21 06:50:22;;;;;;;26.00;19.52;;;18.60;99.90;;;;;;5074234;28;20472;-77
2021/08/21 06:52:51;;;;;;;26.10;18.80;;;18.60;99.90;;;;;;5074685;28;20050;-77
2021/08/21 06:55:17;;;;;;;23.70;18.13;;;18.70;99.90;;;;;;5086064;28;20089;-79
2021/08/21 06:57:43;;;;;;;23.30;16.30;;;18.90;99.90;;;;;;5075962;28;20389;-79
2021/08/21 07:00:09;;;;;;;23.75;15.73;;;19.00;99.90;;;;;;5080141;28;20766;-81
2021/08/21 07:02:34;;;;;;;18.17;14.68;;;19.00;99.90;;;;;;5073103;28;20024;-80
2021/08/21 07:05:00;;;;;;;25.70;14.48;;;19.10;99.90;;;;;;5092873;28;20028;-81
2021/08/21 07:07:26;;;;;;;21.92;15.07;;;19.30;99.90;;;;;;5092108;28;20474;-82
2021/08/21 07:09:51;;;;;;;20.02;14.13;;;19.30;99.90;;;;;;5092744;28;20035;-80
2021/08/21 07:12:18;;;;;;;15.52;13.32;;;19.50;99.90;;;;;;5092384;28;20023;-80
2021/08/21 07:14:43;;;;;;;15.40;12.23;;;19.60;99.90;;;;;;5091402;28;20531;-80
2021/08/21 07:17:10;;;;;;;12.43;10.90;;;19.60;99.90;;;;;;5088992;28;20153;-78
2021/08/21 07:19:35;;;;;;;14.93;11.10;;;19.70;99.90;;;;;;5090784;28;20431;-80
2021/08/21 07:22:01;;;;;;;13.93;11.55;;;19.70;99.90;;;;;;5080474;28;20038;-78
2021/08/21 07:24:27;;;;;;;15.75;12.43;;;19.70;99.90;;;;;;5091959;28;20024;-80
2021/08/21 07:26:52;;;;;;;15.07;12.70;;;19.80;99.90;;;;;;5092187;28;20028;-79
2021/08/21 07:29:18;;;;;;;14.02;12.52;;;19.90;99.90;;;;;;5091729;28;20028;-80
2021/08/21 07:31:43;;;;;;;17.60;12.68;;;19.90;99.90;;;;;;5091725;28;20380;-79
2021/08/21 07:34:09;;;;;;;19.23;14.13;;;20.10;99.90;;;;;;5092422;28;20054;-79
2021/08/21 07:36:35;;;;;;;16.48;13.20;;;20.10;99.90;;;;;;5091289;28;20008;-79
2021/08/21 07:39:00;;;;;;;15.43;13.52;;;20.20;99.90;;;;;;5090308;28;20052;-80
2021/08/21 07:41:26;;;;;;;20.75;15.30;;;20.20;99.90;;;;;;5091600;28;20080;-79
2021/08/21 07:43:52;;;;;;;18.20;14.48;;;20.10;99.90;;;;;;5091354;28;20034;-78
2021/08/21 07:46:17;;;;;;;18.77;15.32;;;20.10;99.90;;;;;;5090261;28;20388;-77
2021/08/21 07:48:45;;;;;;;16.85;13.90;;;20.00;99.90;;;;;;5091823;28;20035;-77
2021/08/21 07:51:11;;;;;;;30.65;15.23;;;20.10;99.90;;;;;;5090035;28;20093;-76
2021/08/21 07:53:37;;;;;;;17.98;14.50;;;20.10;99.90;;;;;;5092076;28;20024;-76
2021/08/21 07:56:08;;;;;;;17.15;14.27;;;20.10;99.90;;;;;;5082273;28;20016;-81
2021/08/21 07:58:34;;;;;;;21.38;15.65;;;20.20;99.90;;;;;;5085643;28;20038;-79
2021/08/21 08:01:00;;;;;;;20.60;14.65;;;20.30;99.90;;;;;;5078120;28;20021;-79
2021/08/21 08:03:27;;;;;;;22.52;15.68;;;20.30;99.90;;;;;;5087248;28;20044;-80
2021/08/21 08:05:56;;;;;;;23.20;15.73;;;20.30;99.90;;;;;;5076634;28;20041;-79
2021/08/21 08:08:23;;;;;;;17.92;14.77;;;20.30;99.90;;;;;;5090776;28;20036;-80
2021/08/21 08:10:49;;;;;;;18.50;15.63;;;20.30;99.90;;;;;;5075933;28;20100;-80
2021/08/21 08:13:15;;;;;;;18.67;15.68;;;20.20;99.90;;;;;;5090863;28;20016;-80
2021/08/21 08:15:41;;;;;;;24.02;16.10;;;20.30;99.90;;;;;;5077572;28;20029;-83
2021/08/21 08:18:07;;;;;;;21.92;16.67;;;20.30;99.90;;;;;;5081782;28;20033;-80
2021/08/21 08:20:32;;;;;;;22.05;16.20;;;20.40;99.90;;;;;;5092487;28;20016;-82
2021/08/21 08:22:58;;;;;;;22.70;16.20;;;20.40;99.90;;;;;;5101056;28;20028;-83
2021/08/21 08:25:24;;;;;;;27.13;16.02;;;20.50;99.90;;;;;;5075742;28;20035;-74
2021/08/21 08:27:49;;;;;;;19.42;15.85;;;20.60;99.90;;;;;;5076050;28;20025;-73
2021/08/21 08:30:16;;;;;;;21.85;15.50;;;20.70;99.90;;;;;;5098027;28;20023;-82
2021/08/21 08:32:42;;;;;;;21.52;16.15;;;20.70;99.90;;;;;;5103466;28;20024;-82
2021/08/21 08:35:09;;;;;;;24.48;15.32;;;20.80;99.90;;;;;;5110101;28;20055;-82
2021/08/21 08:37:34;;;;;;;19.00;14.07;;;20.90;99.90;;;;;;5099331;28;20060;-82
2021/08/21 08:40:03;;;;;;;21.50;15.73;;;21.00;99.90;;;;;;5104329;28;20115;-82
2021/08/21 08:42:29;;;;;;;24.75;15.07;;;21.10;99.90;;;;;;5080171;28;20028;-78
2021/08/21 08:44:54;;;;;;;16.98;14.15;;;21.10;99.90;;;;;;5078727;28;20028;-79
2021/08/21 08:47:21;;;;;;;19.70;14.10;;;21.20;99.90;;;;;;5083560;28;20012;-84
2021/08/21 08:49:48;;;;;;;18.33;13.75;;;21.30;99.90;;;;;;5112666;28;20008;-85
2021/08/21 08:52:15;;;;;;;16.33;13.55;;;21.50;99.90;;;;;;5105083;28;20028;-84
2021/08/21 08:54:41;;;;;;;16.73;13.27;;;21.60;99.90;;;;;;5096799;28;20024;-84
2021/08/21 08:57:07;;;;;;;17.10;14.15;;;21.70;99.90;;;;;;5096338;28;20097;-85
2021/08/21 08:59:34;;;;;;;16.27;13.27;;;21.90;99.90;;;;;;5106606;28;20032;-84
2021/08/21 09:01:59;;;;;;;23.23;16.48;;;22.10;99.90;;;;;;5093944;28;20025;-84
2021/08/21 09:04:26;;;;;;;20.27;13.35;;;22.30;99.90;;;;;;5101220;28;20063;-77
2021/08/21 09:06:53;;;;;;;15.52;12.50;;;22.40;99.90;;;;;;5093837;28;20012;-76
2021/08/21 09:09:21;;;;;;;16.48;13.73;;;22.50;99.90;;;;;;5094233;28;20032;-76
2021/08/21 09:11:52;;;;;;;13.32;12.02;;;22.60;99.90;;;;;;5077900;28;20043;-76
2021/08/21 09:14:25;;;;;;;13.77;11.85;;;22.80;99.90;;;;;;5079587;28;20032;-75
2021/08/21 09:16:51;;;;;;;12.60;11.30;;;22.90;99.90;;;;;;5092889;28;20016;-83
2021/08/21 09:19:26;;;;;;;12.68;11.38;;;23.00;99.90;;;;;;5100133;28;20040;-83
2021/08/21 09:22:00;;;;;;;13.90;12.35;;;23.10;99.90;;;;;;5100394;28;20109;-84
2021/08/21 09:24:25;;;;;;;11.27;10.18;;;23.20;99.90;;;;;;5085475;28;20036;-84
2021/08/21 09:26:52;;;;;;;10.98;9.88;;;23.30;99.90;;;;;;5099559;28;20372;-86
2021/08/21 09:29:27;;;;;;;11.10;9.38;;;23.30;99.90;;;;;;5086710;28;20044;-82
2021/08/21 09:32:04;;;;;;;9.95;8.98;;;23.50;99.90;;;;;;5089259;28;20025;-80
2021/08/21 09:34:30;;;;;;;10.85;9.93;;;23.30;99.90;;;;;;5076583;28;20031;-82
2021/08/21 09:36:56;;;;;;;12.82;11.52;;;23.30;99.90;;;;;;5082388;28;20103;-80
2021/08/21 09:39:34;;;;;;;12.20;9.63;;;23.20;99.90;;;;;;5096456;28;20032;-78
2021/08/21 09:42:02;;;;;;;11.80;9.98;;;23.20;99.90;;;;;;5089369;28;20095;-78
2021/08/21 09:44:39;;;;;;;11.63;9.55;;;23.10;99.90;;;;;;5075085;28;20048;-77
2021/08/21 09:47:10;;;;;;;12.00;10.60;;;23.10;99.90;;;;;;5090921;28;20086;-74
2021/08/21 09:49:36;;;;;;;13.88;10.63;;;23.10;99.90;;;;;;5086954;28;20021;-81
2021/08/21 09:52:07;;;;;;;16.35;12.63;;;23.10;99.90;;;;;;5077088;28;20055;-76
2021/08/21 09:54:37;;;;;;;12.98;11.68;;;23.00;99.90;;;;;;5082337;28;20020;-79
2021/08/21 09:57:03;;;;;;;14.82;11.93;;;23.00;99.90;;;;;;5080353;28;20033;-80
2021/08/21 09:59:34;;;;;;;10.95;9.60;;;23.00;99.90;;;;;;5075642;28;20442;-80
2021/08/21 10:02:04;;;;;;;11.10;9.02;;;23.00;99.90;;;;;;5075371;28;20386;-81
2021/08/21 10:04:30;;;;;;;11.10;9.60;;;23.00;99.90;;;;;;5093137;28;20080;-83
2021/08/21 10:06:56;;;;;;;10.15;9.23;;;23.10;99.90;;;;;;5092106;28;20356;-79
2021/08/21 10:09:23;;;;;;;15.32;11.10;;;23.10;99.90;;;;;;5078783;28;20103;-84
2021/08/21 10:11:52;;;;;;;12.52;10.30;;;23.60;99.90;;;;;;5079514;28;20056;-85
2021/08/21 10:14:25;;;;;;;11.65;10.55;;;23.00;99.90;;;;;;5081907;28;20078;-85
2021/08/21 10:16:51;;;;;;;11.10;10.02;;;23.30;99.90;;;;;;5090732;28;20032;-87
2021/08/21 10:19:18;;;;;;;10.68;9.68;;;23.40;99.90;;;;;;5090355;28;20028;-85
2021/08/21 10:21:56;;;;;;;11.55;10.45;;;23.80;99.90;;;;;;5077401;28;20028;-86
2021/08/21 10:24:29;;;;;;;11.90;10.15;;;23.50;99.90;;;;;;5077531;28;20051;-88
2021/08/21 10:27:07;;;;;;;9.13;8.32;;;23.50;99.90;;;;;;5079510;28;20032;-86
2021/08/21 10:29:34;;;;;;;10.25;9.25;;;23.50;99.90;;;;;;5091065;28;20030;-86
2021/08/21 10:32:00;;;;;;;11.70;9.68;;;23.50;99.90;;;;;;5089901;28;20020;-85
2021/08/21 10:34:25;;;;;;;10.48;9.45;;;24.40;99.90;;;;;;5089063;28;20024;-84
2021/08/21 10:36:51;;;;;;;12.27;10.77;;;23.80;99.90;;;;;;5094757;28;20381;-84
2021/08/21 10:39:21;;;;;;;11.55;10.38;;;23.90;99.90;;;;;;5093281;28;20047;-85
2021/08/21 10:41:49;;;;;;;12.95;9.85;;;24.60;99.90;;;;;;5093663;28;20688;-83
2021/08/21 10:44:42;;;;;;;10.18;9.18;;;24.10;99.90;;;;;;5093998;28;20032;-82
2021/08/21 10:47:09;;;;;;;11.05;9.98;;;24.20;99.90;;;;;;5091658;28;20020;-83
2021/08/21 10:49:46;;;;;;;10.75;9.32;;;24.90;99.90;;;;;;5089367;28;20063;-82
2021/08/21 10:52:44;;;;;;;11.32;9.77;;;25.00;99.90;;;;;;5077606;28;20407;-82
2021/08/21 10:55:16;;;;;;;12.70;11.50;;;24.60;99.90;;;;;;5077796;28;20086;-84
2021/08/21 10:58:15;;;;;;;12.05;11.00;;;24.60;99.90;;;;;;5072350;28;20484;-80
2021/08/21 11:00:41;;;;;;;13.88;10.95;;;24.40;99.90;;;;;;5073382;28;20031;-82
2021/08/21 11:03:12;;;;;;;13.13;10.88;;;24.60;99.90;;;;;;5094050;28;20111;-81
2021/08/21 11:06:05;;;;;;;11.70;10.52;;;24.50;99.90;;;;;;5084447;28;20046;-83
2021/08/21 11:08:52;;;;;;;14.30;11.98;;;24.70;99.90;;;;;;5082211;28;20059;-82
2021/08/21 11:11:33;;;;;;;12.98;10.80;;;24.80;99.90;;;;;;5073871;28;20122;-82
2021/08/21 11:14:00;;;;;;;16.15;10.85;;;24.80;99.90;;;;;;5084516;28;20032;-82
2021/08/21 11:16:46;;;;;;;18.35;12.10;;;24.90;99.90;;;;;;5092537;28;20102;-82
2021/08/21 11:19:15;;;;;;;13.18;11.90;;;25.00;99.90;;;;;;5092579;28;20031;-82
2021/08/21 11:21:40;;;;;;;11.40;10.30;;;25.00;99.90;;;;;;5091270;28;20480;-83
2021/08/21 11:24:27;;;;;;;11.18;10.07;;;25.10;99.90;;;;;;5092945;28;20028;-82
2021/08/21 11:27:24;;;;;;;13.77;11.10;;;25.20;99.90;;;;;;5092494;28;20066;-84
2021/08/21 11:30:20;;;;;;;12.07;10.68;;;25.30;99.90;;;;;;5092191;28;20023;-83
2021/08/21 11:32:57;;;;;;;14.13;11.25;;;25.40;99.90;;;;;;5091356;28;20024;-82
2021/08/21 11:35:53;;;;;;;12.60;11.38;;;25.40;99.90;;;;;;5091636;28;20031;-82
2021/08/21 11:38:30;;;;;;;10.77;9.65;;;25.40;99.90;;;;;;5092303;28;20071;-82
2021/08/21 11:40:59;;;;;;;7.97;7.18;;;25.40;99.90;;;;;;5093086;28;20062;-83
2021/08/21 11:43:30;;;;;;;9.60;6.22;;;25.40;99.90;;;;;;5091475;28;20024;-83
2021/08/21 11:45:58;;;;;;;7.75;6.35;;;25.40;99.90;;;;;;5082539;28;20533;-82
2021/08/21 11:48:28;;;;;;;6.68;6.07;;;25.50;99.90;;;;;;5093518;28;20020;-81
2021/08/21 11:50:53;;;;;;;;;;;25.70;99.90;;;;;;5096741;28;20032;-82
2021/08/21 11:53:28;;;;;;;7.47;6.75;;;25.70;99.90;;;;;;5084006;28;19931;-81
2021/08/21 11:56:08;;;;;;;5.20;4.80;;;25.80;99.90;;;;;;5078745;28;20016;-81
2021/08/21 11:58:45;;;;;;;6.63;4.22;;;25.90;99.90;;;;;;5075435;28;20036;-82
2021/08/21 12:01:14;;;;;;;4.88;4.22;;;26.00;99.90;;;;;;5080543;28;20027;-83
2021/08/21 12:06:37;;;;;;;4.97;4.57;;;26.20;99.90;;;;;;5083402;28;20101;-82
2021/08/21 12:09:25;;;;;;;5.15;4.63;;;26.30;99.90;;;;;;5088873;28;20445;-82
2021/08/21 12:11:52;;;;;;;4.18;3.78;;;26.30;99.90;;;;;;5089982;28;20403;-82
2021/08/21 12:14:23;;;;;;;7.65;4.15;;;26.30;99.90;;;;;;5086036;28;20022;-83
2021/08/21 12:16:53;;;;;;;4.30;3.90;;;27.00;99.90;;;;;;5091108;28;20035;-82
2021/08/21 12:19:30;;;;;;;5.70;4.60;;;26.40;99.90;;;;;;5081989;28;20399;-82
2021/08/21 12:21:56;;;;;;;5.63;5.18;;;26.40;99.90;;;;;;5090775;28;20032;-82
2021/08/21 12:24:22;;;;;;;5.22;4.72;;;26.40;99.80;;;;;;5091608;28;20036;-83
2021/08/21 12:26:48;;;;;;;3.90;3.53;;;26.40;99.80;;;;;;5090667;28;20020;-82
2021/08/21 12:29:22;;;;;;;5.07;4.68;;;26.50;99.90;;;;;;5091963;28;20023;-83
2021/08/21 12:31:50;;;;;;;4.15;3.80;;;26.60;99.50;;;;;;5088277;28;20533;-83
2021/08/21 12:34:17;;;;;;;5.28;3.58;;;26.80;99.70;;;;;;5081924;28;20024;-88
2021/08/21 12:36:44;;;;;;;4.93;4.25;;;27.00;99.50;;;;;;5078585;28;20570;-83
2021/08/21 12:39:21;;;;;;;4.13;3.78;;;27.20;98.70;;;;;;5071750;28;20094;-84